sensor_id;sensor_type;location;lat;lon;timestamp;P1;durP1;ratioP1;P2;durP2;ratioP2
12812;SDS011;6471;50.932;6.934;2023-03-23T00:01:47;1.70;;;1.30;;
12812;SDS011;6471;50.932;6.934;2023-03-23T00:04:17;2.13;;;1.50;;
12812;SDS011;6471;50.932;6.934;2023-03-23T00:06:43;3.30;;;1.90;;
12812;SDS011;6471;50.932;6.934;2023-03-23T00:09:13;3.93;;;1.80;;
12812;SDS011;6471;50.932;6.934;2023-03-23T00:11:42;2.40;;;1.87;;
12812;SDS011;6471;50.932;6.934;2023-03-23T00:14:09;1.90;;;1.60;;
12812;SDS011;6471;50.932;6.934;2023-03-23T00:16:41;2.33;;;1.60;;
12812;SDS011;6471;50.932;6.934;2023-03-23T00:19:10;2.10;;;1.50;;
12812;SDS011;6471;50.932;6.934;2023-03-23T00:21:40;1.83;;;1.37;;
12812;SDS011;6471;50.932;6.934;2023-03-23T00:24:24;1.60;;;1.50;;
12812;SDS011;6471;50.932;6.934;2023-03-23T00:26:50;2.10;;;1.70;;
12812;SDS011;6471;50.932;6.934;2023-03-23T00:29:21;2.60;;;1.50;;
12812;SDS011;6471;50.932;6.934;2023-03-23T00:31:48;2.10;;;1.50;;
12812;SDS011;6471;50.932;6.934;2023-03-23T00:34:18;2.33;;;1.60;;
12812;SDS011;6471;50.932;6.934;2023-03-23T00:36:53;2.20;;;1.90;;
12812;SDS011;6471;50.932;6.934;2023-03-23T00:39:22;2.33;;;1.60;;
12812;SDS011;6471;50.932;6.934;2023-03-23T00:41:49;1.83;;;1.33;;
12812;SDS011;6471;50.932;6.934;2023-03-23T00:44:16;1.40;;;1.20;;
12812;SDS011;6471;50.932;6.934;2023-03-23T00:46:42;1.50;;;1.37;;
12812;SDS011;6471;50.932;6.934;2023-03-23T00:49:11;2.20;;;1.40;;
12812;SDS011;6471;50.932;6.934;2023-03-23T00:51:41;2.27;;;1.43;;
12812;SDS011;6471;50.932;6.934;2023-03-23T00:54:08;1.83;;;1.40;;
12812;SDS011;6471;50.932;6.934;2023-03-23T00:56:34;1.90;;;1.30;;
12812;SDS011;6471;50.932;6.934;2023-03-23T00:59:01;2.33;;;1.47;;
12812;SDS011;6471;50.932;6.934;2023-03-23T01:01:28;3.07;;;1.40;;
12812;SDS011;6471;50.932;6.934;2023-03-23T01:03:54;1.50;;;1.37;;
12812;SDS011;6471;50.932;6.934;2023-03-23T01:06:26;1.50;;;1.40;;
12812;SDS011;6471;50.932;6.934;2023-03-23T01:08:53;1.60;;;1.30;;
12812;SDS011;6471;50.932;6.934;2023-03-23T01:11:19;1.23;;;1.10;;
12812;SDS011;6471;50.932;6.934;2023-03-23T01:13:45;1.83;;;1.30;;
12812;SDS011;6471;50.932;6.934;2023-03-23T01:16:12;2.97;;;1.40;;
12812;SDS011;6471;50.932;6.934;2023-03-23T01:18:38;2.20;;;1.50;;
12812;SDS011;6471;50.932;6.934;2023-03-23T01:21:15;1.83;;;1.50;;
12812;SDS011;6471;50.932;6.934;2023-03-23T01:23:42;1.70;;;1.30;;
12812;SDS011;6471;50.932;6.934;2023-03-23T01:26:12;3.30;;;1.50;;
12812;SDS011;6471;50.932;6.934;2023-03-23T01:28:39;1.77;;;1.40;;
12812;SDS011;6471;50.932;6.934;2023-03-23T01:31:08;3.13;;;1.70;;
12812;SDS011;6471;50.932;6.934;2023-03-23T01:33:36;2.17;;;1.20;;
12812;SDS011;6471;50.932;6.934;2023-03-23T01:36:07;1.47;;;1.33;;
12812;SDS011;6471;50.932;6.934;2023-03-23T01:38:33;1.77;;;1.50;;
12812;SDS011;6471;50.932;6.934;2023-03-23T01:41:00;1.60;;;1.40;;
12812;SDS011;6471;50.932;6.934;2023-03-23T01:43:26;1.70;;;1.40;;
12812;SDS011;6471;50.932;6.934;2023-03-23T01:45:53;1.50;;;1.40;;
12812;SDS011;6471;50.932;6.934;2023-03-23T01:48:35;2.00;;;1.40;;
12812;SDS011;6471;50.932;6.934;2023-03-23T01:54:11;2.07;;;1.77;;
12812;SDS011;6471;50.932;6.934;2023-03-23T01:56:39;1.57;;;1.37;;
12812;SDS011;6471;50.932;6.934;2023-03-23T01:59:09;1.80;;;1.53;;
12812;SDS011;6471;50.932;6.934;2023-03-23T02:01:37;2.53;;;1.70;;
12812;SDS011;6471;50.932;6.934;2023-03-23T02:04:08;1.93;;;1.33;;
12812;SDS011;6471;50.932;6.934;2023-03-23T02:06:34;1.83;;;1.50;;
12812;SDS011;6471;50.932;6.934;2023-03-23T02:09:03;3.23;;;1.70;;
12812;SDS011;6471;50.932;6.934;2023-03-23T02:11:38;2.00;;;1.80;;
12812;SDS011;6471;50.932;6.934;2023-03-23T02:14:05;1.90;;;1.70;;
12812;SDS011;6471;50.932;6.934;2023-03-23T02:35:01;2.40;;;1.90;;
12812;SDS011;6471;50.932;6.934;2023-03-23T02:37:31;1.70;;;1.50;;
12812;SDS011;6471;50.932;6.934;2023-03-23T02:40:17;1.93;;;1.57;;
12812;SDS011;6471;50.932;6.934;2023-03-23T02:42:44;1.57;;;1.47;;
12812;SDS011;6471;50.932;6.934;2023-03-23T02:45:14;1.80;;;1.53;;
12812;SDS011;6471;50.932;6.934;2023-03-23T02:47:43;2.13;;;1.50;;
12812;SDS011;6471;50.932;6.934;2023-03-23T02:50:13;1.87;;;1.50;;
12812;SDS011;6471;50.932;6.934;2023-03-23T02:52:40;2.60;;;1.90;;
12812;SDS011;6471;50.932;6.934;2023-03-23T02:55:31;2.00;;;1.43;;
12812;SDS011;6471;50.932;6.934;2023-03-23T02:58:02;2.43;;;1.60;;
12812;SDS011;6471;50.932;6.934;2023-03-23T03:03:47;1.90;;;1.50;;
12812;SDS011;6471;50.932;6.934;2023-03-23T03:09:42;2.40;;;1.50;;
12812;SDS011;6471;50.932;6.934;2023-03-23T03:17:41;2.13;;;1.40;;
12812;SDS011;6471;50.932;6.934;2023-03-23T03:20:10;1.80;;;1.53;;
12812;SDS011;6471;50.932;6.934;2023-03-23T03:22:39;1.87;;;1.30;;
12812;SDS011;6471;50.932;6.934;2023-03-23T03:25:10;2.60;;;1.40;;
12812;SDS011;6471;50.932;6.934;2023-03-23T03:27:41;1.80;;;1.33;;
12812;SDS011;6471;50.932;6.934;2023-03-23T03:30:13;1.90;;;1.43;;
12812;SDS011;6471;50.932;6.934;2023-03-23T03:32:54;1.50;;;1.20;;
12812;SDS011;6471;50.932;6.934;2023-03-23T03:35:25;2.50;;;1.30;;
12812;SDS011;6471;50.932;6.934;2023-03-23T03:37:57;1.93;;;1.37;;
12812;SDS011;6471;50.932;6.934;2023-03-23T03:40:30;1.27;;;1.17;;
12812;SDS011;6471;50.932;6.934;2023-03-23T03:42:56;1.57;;;1.27;;
12812;SDS011;6471;50.932;6.934;2023-03-23T03:45:28;1.60;;;1.40;;
12812;SDS011;6471;50.932;6.934;2023-03-23T03:47:57;1.37;;;1.27;;
12812;SDS011;6471;50.932;6.934;2023-03-23T03:50:25;1.87;;;1.40;;
12812;SDS011;6471;50.932;6.934;2023-03-23T03:52:59;2.77;;;1.40;;
12812;SDS011;6471;50.932;6.934;2023-03-23T03:55:25;1.37;;;1.27;;
12812;SDS011;6471;50.932;6.934;2023-03-23T03:57:52;1.50;;;1.40;;
12812;SDS011;6471;50.932;6.934;2023-03-23T04:00:19;2.80;;;1.40;;
12812;SDS011;6471;50.932;6.934;2023-03-23T04:02:47;1.77;;;1.30;;
12812;SDS011;6471;50.932;6.934;2023-03-23T04:05:16;1.70;;;1.33;;
12812;SDS011;6471;50.932;6.934;2023-03-23T04:07:44;1.30;;;1.20;;
12812;SDS011;6471;50.932;6.934;2023-03-23T04:10:14;1.50;;;1.40;;
12812;SDS011;6471;50.932;6.934;2023-03-23T04:12:42;1.30;;;1.20;;
12812;SDS011;6471;50.932;6.934;2023-03-23T04:15:19;1.40;;;1.20;;
12812;SDS011;6471;50.932;6.934;2023-03-23T04:17:45;2.10;;;1.07;;
12812;SDS011;6471;50.932;6.934;2023-03-23T04:20:24;1.53;;;1.43;;
12812;SDS011;6471;50.932;6.934;2023-03-23T04:23:34;1.73;;;1.20;;
12812;SDS011;6471;50.932;6.934;2023-03-23T04:26:02;1.40;;;1.20;;
12812;SDS011;6471;50.932;6.934;2023-03-23T04:28:40;1.17;;;1.07;;
12812;SDS011;6471;50.932;6.934;2023-03-23T04:38:20;1.77;;;1.27;;
12812;SDS011;6471;50.932;6.934;2023-03-23T04:41:22;1.43;;;1.23;;
12812;SDS011;6471;50.932;6.934;2023-03-23T04:44:12;1.60;;;1.40;;
12812;SDS011;6471;50.932;6.934;2023-03-23T04:46:42;1.77;;;1.50;;
12812;SDS011;6471;50.932;6.934;2023-03-23T04:49:10;1.60;;;1.40;;
12812;SDS011;6471;50.932;6.934;2023-03-23T04:51:36;1.73;;;1.53;;
12812;SDS011;6471;50.932;6.934;2023-03-23T04:57:14;1.60;;;1.50;;
12812;SDS011;6471;50.932;6.934;2023-03-23T04:59:58;2.07;;;1.50;;
12812;SDS011;6471;50.932;6.934;2023-03-23T05:23:54;1.87;;;1.60;;
12812;SDS011;6471;50.932;6.934;2023-03-23T05:26:22;2.13;;;1.80;;
12812;SDS011;6471;50.932;6.934;2023-03-23T05:29:09;1.70;;;1.50;;
12812;SDS011;6471;50.932;6.934;2023-03-23T05:31:42;2.03;;;1.50;;
12812;SDS011;6471;50.932;6.934;2023-03-23T05:34:08;1.67;;;1.57;;
12812;SDS011;6471;50.932;6.934;2023-03-23T05:36:52;1.57;;;1.47;;
12812;SDS011;6471;50.932;6.934;2023-03-23T05:39:46;1.83;;;1.40;;
12812;SDS011;6471;50.932;6.934;2023-03-23T05:42:41;1.83;;;1.60;;
12812;SDS011;6471;50.932;6.934;2023-03-23T05:45:10;1.77;;;1.37;;
12812;SDS011;6471;50.932;6.934;2023-03-23T05:47:37;1.90;;;1.60;;
12812;SDS011;6471;50.932;6.934;2023-03-23T05:50:04;1.60;;;1.47;;
12812;SDS011;6471;50.932;6.934;2023-03-23T05:52:31;1.70;;;1.50;;
12812;SDS011;6471;50.932;6.934;2023-03-23T05:55:00;2.10;;;1.53;;
12812;SDS011;6471;50.932;6.934;2023-03-23T05:57:30;1.83;;;1.50;;
12812;SDS011;6471;50.932;6.934;2023-03-23T06:00:18;3.23;;;1.90;;
12812;SDS011;6471;50.932;6.934;2023-03-23T06:02:48;2.77;;;1.70;;
12812;SDS011;6471;50.932;6.934;2023-03-23T06:05:16;1.90;;;1.70;;
12812;SDS011;6471;50.932;6.934;2023-03-23T06:07:45;1.67;;;1.57;;
12812;SDS011;6471;50.932;6.934;2023-03-23T06:13:56;1.93;;;1.63;;
12812;SDS011;6471;50.932;6.934;2023-03-23T06:16:29;2.00;;;1.50;;
12812;SDS011;6471;50.932;6.934;2023-03-23T06:18:59;3.07;;;2.00;;
12812;SDS011;6471;50.932;6.934;2023-03-23T06:21:33;1.60;;;1.30;;
12812;SDS011;6471;50.932;6.934;2023-03-23T06:33:43;1.70;;;1.40;;
12812;SDS011;6471;50.932;6.934;2023-03-23T06:36:30;2.10;;;1.30;;
12812;SDS011;6471;50.932;6.934;2023-03-23T06:39:42;1.73;;;1.30;;
12812;SDS011;6471;50.932;6.934;2023-03-23T06:42:17;2.00;;;1.30;;
12812;SDS011;6471;50.932;6.934;2023-03-23T06:47:51;1.40;;;1.30;;
12812;SDS011;6471;50.932;6.934;2023-03-23T06:50:36;2.77;;;1.50;;
12812;SDS011;6471;50.932;6.934;2023-03-23T06:53:02;2.57;;;1.60;;
12812;SDS011;6471;50.932;6.934;2023-03-23T06:55:28;3.60;;;1.60;;
12812;SDS011;6471;50.932;6.934;2023-03-23T06:57:54;3.23;;;1.70;;
12812;SDS011;6471;50.932;6.934;2023-03-23T07:00:20;2.23;;;1.50;;
12812;SDS011;6471;50.932;6.934;2023-03-23T07:02:46;3.33;;;1.43;;
12812;SDS011;6471;50.932;6.934;2023-03-23T07:05:13;2.00;;;1.57;;
12812;SDS011;6471;50.932;6.934;2023-03-23T07:07:39;4.03;;;1.63;;
12812;SDS011;6471;50.932;6.934;2023-03-23T07:10:06;2.70;;;1.70;;
12812;SDS011;6471;50.932;6.934;2023-03-23T07:12:34;1.80;;;1.40;;
12812;SDS011;6471;50.932;6.934;2023-03-23T07:15:01;3.23;;;1.70;;
12812;SDS011;6471;50.932;6.934;2023-03-23T07:17:27;3.63;;;1.63;;
12812;SDS011;6471;50.932;6.934;2023-03-23T07:19:53;3.33;;;1.60;;
12812;SDS011;6471;50.932;6.934;2023-03-23T07:22:19;3.40;;;1.67;;
12812;SDS011;6471;50.932;6.934;2023-03-23T07:24:46;2.33;;;1.30;;
12812;SDS011;6471;50.932;6.934;2023-03-23T07:27:12;2.37;;;1.50;;
12812;SDS011;6471;50.932;6.934;2023-03-23T07:29:38;2.40;;;1.50;;
12812;SDS011;6471;50.932;6.934;2023-03-23T07:32:05;2.03;;;1.47;;
12812;SDS011;6471;50.932;6.934;2023-03-23T07:34:31;2.20;;;1.40;;
12812;SDS011;6471;50.932;6.934;2023-03-23T07:36:58;2.20;;;1.50;;
12812;SDS011;6471;50.932;6.934;2023-03-23T07:39:25;2.07;;;1.30;;
12812;SDS011;6471;50.932;6.934;2023-03-23T07:41:51;2.33;;;1.77;;
12812;SDS011;6471;50.932;6.934;2023-03-23T07:44:17;3.07;;;1.77;;
12812;SDS011;6471;50.932;6.934;2023-03-23T07:46:43;2.97;;;1.57;;
12812;SDS011;6471;50.932;6.934;2023-03-23T07:49:09;2.10;;;1.40;;
12812;SDS011;6471;50.932;6.934;2023-03-23T07:51:35;1.57;;;1.40;;
12812;SDS011;6471;50.932;6.934;2023-03-23T07:54:03;2.60;;;1.50;;
12812;SDS011;6471;50.932;6.934;2023-03-23T07:56:30;3.53;;;1.60;;
12812;SDS011;6471;50.932;6.934;2023-03-23T07:58:56;2.43;;;1.60;;
12812;SDS011;6471;50.932;6.934;2023-03-23T08:01:22;3.33;;;1.63;;
12812;SDS011;6471;50.932;6.934;2023-03-23T08:03:49;4.03;;;1.50;;
12812;SDS011;6471;50.932;6.934;2023-03-23T08:06:16;1.90;;;1.50;;
12812;SDS011;6471;50.932;6.934;2023-03-23T08:08:42;2.87;;;1.37;;
12812;SDS011;6471;50.932;6.934;2023-03-23T08:11:11;3.93;;;1.60;;
12812;SDS011;6471;50.932;6.934;2023-03-23T08:13:44;2.27;;;1.37;;
12812;SDS011;6471;50.932;6.934;2023-03-23T08:16:24;1.80;;;1.50;;
12812;SDS011;6471;50.932;6.934;2023-03-23T08:22:35;2.20;;;1.20;;
12812;SDS011;6471;50.932;6.934;2023-03-23T08:25:11;2.40;;;1.40;;
12812;SDS011;6471;50.932;6.934;2023-03-23T08:41:30;1.70;;;1.50;;
12812;SDS011;6471;50.932;6.934;2023-03-23T08:44:16;2.17;;;1.40;;
12812;SDS011;6471;50.932;6.934;2023-03-23T09:01:32;4.73;;;1.63;;
12812;SDS011;6471;50.932;6.934;2023-03-23T09:04:10;4.23;;;1.70;;
12812;SDS011;6471;50.932;6.934;2023-03-23T09:06:55;3.50;;;1.50;;
12812;SDS011;6471;50.932;6.934;2023-03-23T09:18:58;3.43;;;1.50;;
12812;SDS011;6471;50.932;6.934;2023-03-23T09:21:28;4.23;;;1.63;;
12812;SDS011;6471;50.932;6.934;2023-03-23T09:23:57;2.97;;;1.67;;
12812;SDS011;6471;50.932;6.934;2023-03-23T09:26:49;1.93;;;1.40;;
12812;SDS011;6471;50.932;6.934;2023-03-23T09:29:17;1.50;;;1.13;;
12812;SDS011;6471;50.932;6.934;2023-03-23T09:31:44;2.10;;;1.30;;
12812;SDS011;6471;50.932;6.934;2023-03-23T09:49:37;2.70;;;1.40;;
12812;SDS011;6471;50.932;6.934;2023-03-23T09:52:15;2.40;;;1.37;;
12812;SDS011;6471;50.932;6.934;2023-03-23T09:54:45;2.80;;;1.40;;
12812;SDS011;6471;50.932;6.934;2023-03-23T09:57:28;3.13;;;1.70;;
12812;SDS011;6471;50.932;6.934;2023-03-23T10:00:12;3.30;;;1.50;;
12812;SDS011;6471;50.932;6.934;2023-03-23T10:05:55;3.33;;;1.57;;
12812;SDS011;6471;50.932;6.934;2023-03-23T10:11:50;3.67;;;1.73;;
12812;SDS011;6471;50.932;6.934;2023-03-23T10:17:43;2.93;;;1.40;;
12812;SDS011;6471;50.932;6.934;2023-03-23T10:20:32;2.23;;;1.20;;
12812;SDS011;6471;50.932;6.934;2023-03-23T10:26:22;2.17;;;1.40;;
12812;SDS011;6471;50.932;6.934;2023-03-23T10:29:11;2.03;;;1.17;;
12812;SDS011;6471;50.932;6.934;2023-03-23T10:31:46;4.33;;;1.77;;
12812;SDS011;6471;50.932;6.934;2023-03-23T10:34:34;1.87;;;1.20;;
12812;SDS011;6471;50.932;6.934;2023-03-23T10:43:14;2.57;;;1.20;;
12812;SDS011;6471;50.932;6.934;2023-03-23T10:45:49;2.30;;;1.20;;
12812;SDS011;6471;50.932;6.934;2023-03-23T10:51:17;1.00;;;0.87;;
12812;SDS011;6471;50.932;6.934;2023-03-23T10:54:25;1.97;;;1.00;;
12812;SDS011;6471;50.932;6.934;2023-03-23T10:57:00;1.20;;;1.10;;
12812;SDS011;6471;50.932;6.934;2023-03-23T10:59:30;1.47;;;1.10;;
12812;SDS011;6471;50.932;6.934;2023-03-23T11:02:18;2.47;;;1.00;;
12812;SDS011;6471;50.932;6.934;2023-03-23T11:05:05;1.73;;;1.03;;
12812;SDS011;6471;50.932;6.934;2023-03-23T11:07:36;2.27;;;1.00;;
12812;SDS011;6471;50.932;6.934;2023-03-23T11:10:16;2.70;;;1.27;;
12812;SDS011;6471;50.932;6.934;2023-03-23T11:12:49;1.47;;;1.20;;
12812;SDS011;6471;50.932;6.934;2023-03-23T11:15:39;1.50;;;1.10;;
12812;SDS011;6471;50.932;6.934;2023-03-23T11:21:22;1.53;;;0.97;;
12812;SDS011;6471;50.932;6.934;2023-03-23T11:24:04;1.73;;;1.03;;
12812;SDS011;6471;50.932;6.934;2023-03-23T11:26:34;2.67;;;1.10;;
12812;SDS011;6471;50.932;6.934;2023-03-23T11:29:08;2.53;;;1.03;;
12812;SDS011;6471;50.932;6.934;2023-03-23T11:31:42;1.77;;;1.20;;
12812;SDS011;6471;50.932;6.934;2023-03-23T11:37:05;2.80;;;1.20;;
12812;SDS011;6471;50.932;6.934;2023-03-23T11:52:09;0.97;;;0.80;;
12812;SDS011;6471;50.932;6.934;2023-03-23T11:55:11;1.20;;;0.80;;
12812;SDS011;6471;50.932;6.934;2023-03-23T11:57:39;1.30;;;0.90;;
12812;SDS011;6471;50.932;6.934;2023-03-23T12:00:36;1.83;;;0.80;;
12812;SDS011;6471;50.932;6.934;2023-03-23T12:03:25;2.60;;;1.13;;
12812;SDS011;6471;50.932;6.934;2023-03-23T12:14:21;1.10;;;0.90;;
12812;SDS011;6471;50.932;6.934;2023-03-23T12:17:03;2.57;;;1.43;;
12812;SDS011;6471;50.932;6.934;2023-03-23T12:22:33;1.33;;;0.93;;
12812;SDS011;6471;50.932;6.934;2023-03-23T12:30:56;2.93;;;1.10;;
12812;SDS011;6471;50.932;6.934;2023-03-23T12:56:26;4.27;;;1.70;;
12812;SDS011;6471;50.932;6.934;2023-03-23T13:04:59;2.57;;;1.50;;
12812;SDS011;6471;50.932;6.934;2023-03-23T13:07:31;2.33;;;1.37;;
12812;SDS011;6471;50.932;6.934;2023-03-23T13:22:31;2.33;;;1.30;;
12812;SDS011;6471;50.932;6.934;2023-03-23T13:25:05;2.30;;;1.20;;
12812;SDS011;6471;50.932;6.934;2023-03-23T13:30:52;3.10;;;1.60;;
12812;SDS011;6471;50.932;6.934;2023-03-23T13:36:38;2.70;;;1.40;;
12812;SDS011;6471;50.932;6.934;2023-03-23T13:54:14;2.30;;;1.07;;
12812;SDS011;6471;50.932;6.934;2023-03-23T14:05:49;2.93;;;1.40;;
12812;SDS011;6471;50.932;6.934;2023-03-23T14:17:17;2.57;;;1.57;;
12812;SDS011;6471;50.932;6.934;2023-03-23T14:29:12;2.97;;;1.60;;
12812;SDS011;6471;50.932;6.934;2023-03-23T14:31:44;2.60;;;1.40;;
12812;SDS011;6471;50.932;6.934;2023-03-23T14:34:18;2.83;;;1.50;;
12812;SDS011;6471;50.932;6.934;2023-03-23T14:36:55;2.27;;;1.30;;
12812;SDS011;6471;50.932;6.934;2023-03-23T14:39:25;1.97;;;1.43;;
12812;SDS011;6471;50.932;6.934;2023-03-23T14:41:53;3.33;;;1.63;;
12812;SDS011;6471;50.932;6.934;2023-03-23T14:44:32;2.93;;;1.40;;
12812;SDS011;6471;50.932;6.934;2023-03-23T14:47:42;3.47;;;1.63;;
12812;SDS011;6471;50.932;6.934;2023-03-23T14:53:30;4.73;;;1.60;;
12812;SDS011;6471;50.932;6.934;2023-03-23T14:56:06;3.33;;;1.50;;
12812;SDS011;6471;50.932;6.934;2023-03-23T14:59:00;2.63;;;1.30;;
12812;SDS011;6471;50.932;6.934;2023-03-23T15:01:47;2.37;;;1.30;;
12812;SDS011;6471;50.932;6.934;2023-03-23T15:07:34;1.40;;;1.10;;
12812;SDS011;6471;50.932;6.934;2023-03-23T15:10:01;2.67;;;1.20;;
12812;SDS011;6471;50.932;6.934;2023-03-23T15:12:39;2.33;;;1.20;;
12812;SDS011;6471;50.932;6.934;2023-03-23T15:15:14;2.47;;;1.40;;
12812;SDS011;6471;50.932;6.934;2023-03-23T15:20:53;3.37;;;1.50;;
12812;SDS011;6471;50.932;6.934;2023-03-23T15:26:40;1.77;;;1.13;;
12812;SDS011;6471;50.932;6.934;2023-03-23T15:29:25;2.70;;;1.67;;
12812;SDS011;6471;50.932;6.934;2023-03-23T15:31:53;2.80;;;1.50;;
12812;SDS011;6471;50.932;6.934;2023-03-23T15:34:31;3.07;;;1.60;;
12812;SDS011;6471;50.932;6.934;2023-03-23T15:40:44;8.80;;;2.10;;
12812;SDS011;6471;50.932;6.934;2023-03-23T15:43:21;2.33;;;1.50;;
12812;SDS011;6471;50.932;6.934;2023-03-23T15:46:27;2.93;;;1.47;;
12812;SDS011;6471;50.932;6.934;2023-03-23T15:51:23;2.13;;;1.50;;
12812;SDS011;6471;50.932;6.934;2023-03-23T15:53:56;3.37;;;1.40;;
12812;SDS011;6471;50.932;6.934;2023-03-23T16:02:04;4.27;;;1.67;;
12812;SDS011;6471;50.932;6.934;2023-03-23T16:04:30;3.23;;;1.77;;
12812;SDS011;6471;50.932;6.934;2023-03-23T16:07:15;2.87;;;1.80;;
12812;SDS011;6471;50.932;6.934;2023-03-23T16:09:52;3.67;;;1.60;;
12812;SDS011;6471;50.932;6.934;2023-03-23T16:12:34;4.33;;;1.73;;
12812;SDS011;6471;50.932;6.934;2023-03-23T16:18:03;4.20;;;1.70;;
12812;SDS011;6471;50.932;6.934;2023-03-23T16:20:41;2.50;;;1.70;;
12812;SDS011;6471;50.932;6.934;2023-03-23T16:23:46;3.83;;;1.87;;
12812;SDS011;6471;50.932;6.934;2023-03-23T16:26:13;3.80;;;1.70;;
12812;SDS011;6471;50.932;6.934;2023-03-23T16:28:52;3.93;;;1.90;;
12812;SDS011;6471;50.932;6.934;2023-03-23T16:31:24;3.90;;;1.80;;
12812;SDS011;6471;50.932;6.934;2023-03-23T16:34:00;3.37;;;1.67;;
12812;SDS011;6471;50.932;6.934;2023-03-23T16:36:26;2.17;;;1.60;;
12812;SDS011;6471;50.932;6.934;2023-03-23T16:38:55;3.17;;;1.70;;
12812;SDS011;6471;50.932;6.934;2023-03-23T16:41:33;3.30;;;1.30;;
12812;SDS011;6471;50.932;6.934;2023-03-23T16:44:40;2.40;;;1.50;;
12812;SDS011;6471;50.932;6.934;2023-03-23T16:47:05;3.07;;;1.73;;
12812;SDS011;6471;50.932;6.934;2023-03-23T16:55:41;3.10;;;1.90;;
12812;SDS011;6471;50.932;6.934;2023-03-23T17:01:36;3.73;;;1.83;;
12812;SDS011;6471;50.932;6.934;2023-03-23T17:07:24;2.90;;;1.53;;
12812;SDS011;6471;50.932;6.934;2023-03-23T17:10:03;4.77;;;1.93;;
12812;SDS011;6471;50.932;6.934;2023-03-23T17:16:04;2.53;;;1.63;;
12812;SDS011;6471;50.932;6.934;2023-03-23T17:18:30;3.83;;;1.70;;
12812;SDS011;6471;50.932;6.934;2023-03-23T17:42:00;3.23;;;1.70;;
12812;SDS011;6471;50.932;6.934;2023-03-23T17:44:36;2.47;;;1.50;;
12812;SDS011;6471;50.932;6.934;2023-03-23T17:50:01;2.33;;;1.50;;
12812;SDS011;6471;50.932;6.934;2023-03-23T17:56:21;2.50;;;1.60;;
12812;SDS011;6471;50.932;6.934;2023-03-23T17:59:02;4.17;;;2.20;;
12812;SDS011;6471;50.932;6.934;2023-03-23T18:08:05;2.80;;;1.90;;
12812;SDS011;6471;50.932;6.934;2023-03-23T18:10:35;6.10;;;2.73;;
12812;SDS011;6471;50.932;6.934;2023-03-23T18:13:34;3.53;;;2.07;;
12812;SDS011;6471;50.932;6.934;2023-03-23T18:16:00;4.30;;;1.90;;
12812;SDS011;6471;50.932;6.934;2023-03-23T18:24:32;3.27;;;1.60;;
12812;SDS011;6471;50.932;6.934;2023-03-23T18:30:21;3.83;;;2.30;;
12812;SDS011;6471;50.932;6.934;2023-03-23T18:33:09;3.33;;;2.00;;
12812;SDS011;6471;50.932;6.934;2023-03-23T18:35:59;3.25;;;2.00;;
12812;SDS011;6471;50.932;6.934;2023-03-23T18:45:09;3.77;;;2.00;;
12812;SDS011;6471;50.932;6.934;2023-03-23T18:54:06;4.30;;;2.27;;
12812;SDS011;6471;50.932;6.934;2023-03-23T18:59:30;4.37;;;1.90;;
12812;SDS011;6471;50.932;6.934;2023-03-23T19:05:24;3.30;;;2.23;;
12812;SDS011;6471;50.932;6.934;2023-03-23T19:08:32;4.40;;;2.77;;
12812;SDS011;6471;50.932;6.934;2023-03-23T19:28:41;4.03;;;2.10;;
12812;SDS011;6471;50.932;6.934;2023-03-23T19:31:16;2.77;;;1.90;;
12812;SDS011;6471;50.932;6.934;2023-03-23T19:36:50;4.83;;;2.07;;
12812;SDS011;6471;50.932;6.934;2023-03-23T19:39:34;5.90;;;2.20;;
12812;SDS011;6471;50.932;6.934;2023-03-23T19:42:33;4.47;;;2.20;;
12812;SDS011;6471;50.932;6.934;2023-03-23T19:48:01;4.00;;;2.07;;
12812;SDS011;6471;50.932;6.934;2023-03-23T19:50:33;2.90;;;1.83;;
12812;SDS011;6471;50.932;6.934;2023-03-23T19:53:02;3.87;;;1.97;;
12812;SDS011;6471;50.932;6.934;2023-03-23T19:58:49;4.17;;;2.30;;
12812;SDS011;6471;50.932;6.934;2023-03-23T20:01:22;3.53;;;1.90;;
12812;SDS011;6471;50.932;6.934;2023-03-23T20:04:06;3.67;;;2.30;;
12812;SDS011;6471;50.932;6.934;2023-03-23T20:06:35;4.13;;;2.30;;
12812;SDS011;6471;50.932;6.934;2023-03-23T20:09:19;3.23;;;2.20;;
12812;SDS011;6471;50.932;6.934;2023-03-23T20:14:59;3.23;;;2.30;;
12812;SDS011;6471;50.932;6.934;2023-03-23T20:17:31;3.30;;;2.23;;
12812;SDS011;6471;50.932;6.934;2023-03-23T20:23:22;4.13;;;2.40;;
12812;SDS011;6471;50.932;6.934;2023-03-23T20:32:01;2.87;;;2.00;;
12812;SDS011;6471;50.932;6.934;2023-03-23T20:43:29;4.03;;;2.00;;
12812;SDS011;6471;50.932;6.934;2023-03-23T20:46:30;3.40;;;1.97;;
12812;SDS011;6471;50.932;6.934;2023-03-23T20:52:01;3.53;;;2.00;;
12812;SDS011;6471;50.932;6.934;2023-03-23T20:54:36;4.17;;;2.33;;
12812;SDS011;6471;50.932;6.934;2023-03-23T20:57:27;3.77;;;2.43;;
12812;SDS011;6471;50.932;6.934;2023-03-23T21:28:30;5.87;;;3.00;;
12812;SDS011;6471;50.932;6.934;2023-03-23T21:31:08;3.17;;;2.40;;
12812;SDS011;6471;50.932;6.934;2023-03-23T21:52:24;3.93;;;2.30;;
12812;SDS011;6471;50.932;6.934;2023-03-23T22:23:39;3.93;;;2.10;;
12812;SDS011;6471;50.932;6.934;2023-03-23T22:40:11;3.20;;;2.07;;
12812;SDS011;6471;50.932;6.934;2023-03-23T22:49:06;2.53;;;1.90;;
12812;SDS011;6471;50.932;6.934;2023-03-23T22:52:08;3.27;;;2.00;;
12812;SDS011;6471;50.932;6.934;2023-03-23T22:54:34;2.40;;;2.00;;
12812;SDS011;6471;50.932;6.934;2023-03-23T22:57:00;2.57;;;1.80;;
12812;SDS011;6471;50.932;6.934;2023-03-23T23:02:22;3.23;;;2.00;;
12812;SDS011;6471;50.932;6.934;2023-03-23T23:04:50;3.07;;;1.97;;
12812;SDS011;6471;50.932;6.934;2023-03-23T23:07:24;2.10;;;1.53;;
12812;SDS011;6471;50.932;6.934;2023-03-23T23:09:50;2.57;;;1.60;;
12812;SDS011;6471;50.932;6.934;2023-03-23T23:12:16;2.30;;;1.50;;
12812;SDS011;6471;50.932;6.934;2023-03-23T23:14:45;1.80;;;1.40;;
12812;SDS011;6471;50.932;6.934;2023-03-23T23:17:14;1.93;;;1.20;;
12812;SDS011;6471;50.932;6.934;2023-03-23T23:19:40;1.63;;;1.30;;
12812;SDS011;6471;50.932;6.934;2023-03-23T23:22:07;2.03;;;1.40;;
12812;SDS011;6471;50.932;6.934;2023-03-23T23:24:33;1.93;;;1.33;;
12812;SDS011;6471;50.932;6.934;2023-03-23T23:26:59;1.70;;;1.43;;
12812;SDS011;6471;50.932;6.934;2023-03-23T23:29:28;2.77;;;1.70;;
12812;SDS011;6471;50.932;6.934;2023-03-23T23:31:57;2.57;;;1.87;;
12812;SDS011;6471;50.932;6.934;2023-03-23T23:34:29;2.23;;;1.67;;
12812;SDS011;6471;50.932;6.934;2023-03-23T23:36:56;2.67;;;1.93;;
12812;SDS011;6471;50.932;6.934;2023-03-23T23:39:23;3.40;;;1.80;;
12812;SDS011;6471;50.932;6.934;2023-03-23T23:41:51;2.63;;;1.80;;
12812;SDS011;6471;50.932;6.934;2023-03-23T23:44:17;3.07;;;1.97;;
12812;SDS011;6471;50.932;6.934;2023-03-23T23:46:43;3.37;;;2.17;;
12812;SDS011;6471;50.932;6.934;2023-03-23T23:49:12;2.50;;;1.93;;
12812;SDS011;6471;50.932;6.934;2023-03-23T23:51:39;2.73;;;1.83;;
12812;SDS011;6471;50.932;6.934;2023-03-23T23:54:05;2.43;;;1.80;;
12812;SDS011;6471;50.932;6.934;2023-03-23T23:56:31;3.67;;;2.70;;
12812;SDS011;6471;50.932;6.934;2023-03-23T23:58:57;2.70;;;2.30;;
